Time;durP1;ratioP1;P1;durP2;ratioP2;P2;SDS_P1;SDS_P2;PMS_P1;PMS_P2;Temp;Humidity;BMP_temperature;BMP_pressure;BME280_temperature;BME280_humidity;BME280_pressure;Samples;Min_cycle;Max_cycle;Signal;HPM_P1;HPM_P2
2023/08/22 00:01:10;;;;;;;10.25;6.85;;;17.00;99.90;;;;;;5111444;28;20461;-77
2023/08/22 00:03:56;;;;;;;12.98;7.22;;;17.00;99.90;;;;;;5096147;28;20093;-78
2023/08/22 00:06:43;;;;;;;14.50;8.38;;;17.00;99.90;;;;;;5111190;28;20235;-75
2023/08/22 00:09:29;;;;;;;15.65;8.23;;;17.10;99.90;;;;;;5110775;28;20558;-76
2023/08/22 00:12:15;;;;;;;13.85;8.27;;;17.10;99.90;;;;;;5111136;28;20055;-80
2023/08/22 00:15:04;;;;;;;9.77;5.60;;;17.00;99.90;;;;;;5110025;28;20044;-75
2023/08/22 00:17:50;;;;;;;15.23;7.30;;;17.00;99.90;;;;;;5110954;28;20043;-77
2023/08/22 00:20:36;;;;;;;15.93;8.23;;;17.00;99.90;;;;;;5110761;28;20513;-76
2023/08/22 00:23:22;;;;;;;13.07;7.53;;;16.90;99.90;;;;;;5111299;28;20048;-80
2023/08/22 00:26:08;;;;;;;17.27;7.68;;;16.90;99.90;;;;;;5111049;28;20083;-78
2023/08/22 00:28:54;;;;;;;15.82;8.93;;;16.90;99.90;;;;;;5110283;28;20051;-80
2023/08/22 00:31:41;;;;;;;11.52;6.75;;;16.90;99.90;;;;;;5111802;28;20043;-79
2023/08/22 00:34:27;;;;;;;16.40;7.93;;;16.90;99.90;;;;;;5110793;28;20094;-80
2023/08/22 00:37:13;;;;;;;13.25;8.70;;;16.90;99.90;;;;;;5110811;28;20151;-79
2023/08/22 00:40:00;;;;;;;11.70;7.18;;;16.90;99.90;;;;;;5112348;28;20530;-78
2023/08/22 00:42:46;;;;;;;19.58;8.45;;;16.90;99.90;;;;;;5111102;28;20044;-79
2023/08/22 00:45:32;;;;;;;13.23;7.70;;;16.90;99.90;;;;;;5109850;28;20134;-78
2023/08/22 00:48:18;;;;;;;15.02;7.82;;;16.90;99.90;;;;;;5109677;28;20063;-77
2023/08/22 00:51:06;;;;;;;15.70;9.05;;;16.90;99.90;;;;;;5109757;28;20120;-78
2023/08/22 00:53:52;;;;;;;23.05;9.30;;;16.90;99.90;;;;;;5110342;28;20059;-77
2023/08/22 00:56:40;;;;;;;16.13;8.25;;;16.90;99.90;;;;;;5108755;28;20055;-77
2023/08/22 00:59:27;;;;;;;16.10;8.95;;;16.90;99.90;;;;;;5110015;28;20142;-79
2023/08/22 01:02:14;;;;;;;14.15;8.50;;;16.90;99.90;;;;;;5111018;28;20116;-78
2023/08/22 01:05:00;;;;;;;12.23;7.95;;;16.90;99.90;;;;;;5110840;28;20055;-77
2023/08/22 01:08:10;;;;;;;16.65;8.60;;;16.90;99.90;;;;;;5110170;28;20067;-77
2023/08/22 01:11:04;;;;;;;14.38;8.15;;;16.90;99.90;;;;;;5111129;28;20051;-78
2023/08/22 01:13:54;;;;;;;16.85;8.13;;;16.90;99.90;;;;;;5110440;28;20461;-77
2023/08/22 01:16:41;;;;;;;12.20;8.80;;;16.90;99.90;;;;;;5110061;28;20142;-78
2023/08/22 01:19:27;;;;;;;13.88;8.85;;;16.90;99.90;;;;;;5110407;28;20051;-78
2023/08/22 01:22:13;;;;;;;17.60;9.48;;;16.90;99.90;;;;;;5110187;28;20054;-77
2023/08/22 01:24:59;;;;;;;17.08;9.43;;;16.90;99.90;;;;;;5109891;28;20087;-78
2023/08/22 01:27:45;;;;;;;19.08;9.90;;;16.90;99.90;;;;;;5110258;28;20067;-76
2023/08/22 01:30:46;;;;;;;14.82;8.75;;;16.90;99.90;;;;;;5110650;28;20051;-78
2023/08/22 01:33:58;;;;;;;15.10;8.25;;;16.90;99.90;;;;;;5112719;28;20047;-77
2023/08/22 01:36:46;;;;;;;15.60;8.55;;;16.90;99.90;;;;;;5098319;28;20052;-77
2023/08/22 01:39:34;;;;;;;16.55;8.70;;;16.90;99.90;;;;;;5110721;28;20093;-78
2023/08/22 01:42:20;;;;;;;19.50;9.98;;;16.90;99.90;;;;;;5109230;28;20495;-75
2023/08/22 01:45:06;;;;;;;18.35;9.23;;;16.90;99.90;;;;;;5110154;28;20098;-76
2023/08/22 01:47:53;;;;;;;15.73;8.18;;;16.80;99.90;;;;;;5110122;28;20055;-75
2023/08/22 01:50:39;;;;;;;12.63;8.50;;;16.80;99.90;;;;;;5110975;28;20115;-81
2023/08/22 01:53:25;;;;;;;20.92;10.05;;;16.80;99.90;;;;;;5102874;28;20062;-75
2023/08/22 01:56:11;;;;;;;15.13;8.73;;;16.80;99.90;;;;;;5115343;28;20043;-75
2023/08/22 01:58:57;;;;;;;12.90;7.22;;;16.80;99.90;;;;;;5112267;28;20079;-76
2023/08/22 02:01:43;;;;;;;11.27;6.68;;;16.80;99.90;;;;;;5094738;28;20121;-76
2023/08/22 02:04:29;;;;;;;13.75;8.25;;;16.80;99.90;;;;;;5096958;28;20079;-76
2023/08/22 02:07:15;;;;;;;14.90;9.15;;;16.70;99.90;;;;;;5082200;28;20443;-77
2023/08/22 02:10:06;;;;;;;12.43;7.55;;;16.70;99.90;;;;;;5096118;28;20088;-75
2023/08/22 02:12:52;;;;;;;15.07;8.60;;;16.70;99.90;;;;;;5096287;28;20044;-77
2023/08/22 02:15:38;;;;;;;13.95;8.27;;;16.70;99.90;;;;;;5093313;28;20120;-76
2023/08/22 02:18:24;;;;;;;17.40;8.07;;;16.60;99.90;;;;;;5093087;28;20121;-76
2023/08/22 02:21:11;;;;;;;15.60;8.18;;;16.60;99.90;;;;;;5094236;28;20055;-78
2023/08/22 02:23:57;;;;;;;12.60;8.35;;;16.50;99.90;;;;;;5093176;28;20051;-75
2023/08/22 02:26:43;;;;;;;13.63;8.65;;;16.50;99.90;;;;;;5093471;28;20445;-77
2023/08/22 02:29:29;;;;;;;15.52;9.07;;;16.50;99.90;;;;;;5093585;28;20508;-76
2023/08/22 02:32:16;;;;;;;15.00;9.10;;;16.40;99.90;;;;;;5093441;28;20091;-76
2023/08/22 02:35:03;;;;;;;16.83;9.32;;;16.40;99.90;;;;;;5092910;28;20044;-76
2023/08/22 02:37:49;;;;;;;22.13;12.52;;;16.50;99.90;;;;;;5091305;28;20052;-78
2023/08/22 02:40:36;;;;;;;14.65;8.63;;;16.50;99.90;;;;;;5095475;28;20056;-83
2023/08/22 02:43:22;;;;;;;19.70;11.40;;;16.50;99.90;;;;;;5096595;28;20066;-86
2023/08/22 02:46:08;;;;;;;18.65;11.18;;;16.60;99.90;;;;;;5094902;28;20059;-86
2023/08/22 02:48:54;;;;;;;21.08;11.20;;;16.60;99.90;;;;;;5095070;28;20090;-81
2023/08/22 02:51:40;;;;;;;18.58;9.57;;;16.60;99.90;;;;;;5095001;28;20083;-80
2023/08/22 02:54:26;;;;;;;17.20;11.73;;;16.70;99.90;;;;;;5094215;28;20066;-81
2023/08/22 02:57:13;;;;;;;17.88;10.20;;;16.70;99.90;;;;;;5093688;28;20048;-82
2023/08/22 02:59:59;;;;;;;19.88;11.80;;;16.70;99.90;;;;;;5094183;28;20052;-81
2023/08/22 03:02:45;;;;;;;22.25;11.70;;;16.80;99.90;;;;;;5098108;28;20044;-80
2023/08/22 03:05:31;;;;;;;14.98;9.25;;;16.80;99.90;;;;;;5094972;28;20563;-84
2023/08/22 03:08:17;;;;;;;16.67;10.95;;;16.80;99.90;;;;;;5092929;28;20124;-77
2023/08/22 03:11:03;;;;;;;17.58;10.35;;;16.80;99.90;;;;;;5091887;28;20055;-79
2023/08/22 03:13:49;;;;;;;22.77;12.43;;;16.80;99.90;;;;;;5092616;28;20047;-78
2023/08/22 03:16:36;;;;;;;25.55;11.55;;;16.80;99.90;;;;;;5091651;28;20503;-77
2023/08/22 03:19:22;;;;;;;20.30;10.95;;;16.80;99.90;;;;;;5092147;28;20044;-77
2023/08/22 03:22:08;;;;;;;19.30;8.88;;;16.80;99.90;;;;;;5089889;28;20083;-78
2023/08/22 03:24:54;;;;;;;19.67;10.98;;;16.70;99.90;;;;;;5091168;28;20484;-79
2023/08/22 03:27:40;;;;;;;16.35;8.95;;;16.70;99.90;;;;;;5091486;28;20069;-78
2023/08/22 03:30:27;;;;;;;20.70;8.77;;;16.70;99.90;;;;;;5092285;28;20117;-77
2023/08/22 03:33:13;;;;;;;17.98;9.82;;;16.60;99.90;;;;;;5092081;28;20078;-81
2023/08/22 03:35:59;;;;;;;19.52;10.25;;;16.60;99.90;;;;;;5090433;28;20098;-78
2023/08/22 03:38:47;;;;;;;18.27;9.13;;;16.60;99.90;;;;;;5091347;28;20055;-78
2023/08/22 03:41:33;;;;;;;21.25;9.60;;;16.50;99.90;;;;;;5091789;28;20044;-78
2023/08/22 03:44:19;;;;;;;17.70;9.40;;;16.50;99.90;;;;;;5091492;28;20052;-78
2023/08/22 03:47:05;;;;;;;19.60;9.85;;;16.50;99.90;;;;;;5092262;28;20079;-79
2023/08/22 03:49:51;;;;;;;15.70;8.45;;;16.40;99.90;;;;;;5091653;28;20144;-78
2023/08/22 03:52:38;;;;;;;14.45;7.47;;;16.40;99.90;;;;;;5090412;28;20043;-81
2023/08/22 03:55:24;;;;;;;17.92;9.38;;;16.40;99.90;;;;;;5091753;28;20075;-77
2023/08/22 03:58:11;;;;;;;12.63;8.13;;;16.40;99.90;;;;;;5091475;28;20060;-77
2023/08/22 04:01:03;;;;;;;17.23;9.70;;;16.30;99.90;;;;;;5091520;28;20518;-80
2023/08/22 04:03:50;;;;;;;23.17;10.80;;;16.30;99.90;;;;;;5110119;28;20055;-78
2023/08/22 04:06:36;;;;;;;19.17;9.43;;;16.30;99.90;;;;;;5110919;28;20138;-84
2023/08/22 04:09:22;;;;;;;16.35;8.57;;;16.30;99.90;;;;;;5096391;28;20063;-81
2023/08/22 04:12:08;;;;;;;14.43;8.82;;;16.20;99.90;;;;;;5110861;28;20589;-79
2023/08/22 04:14:55;;;;;;;14.68;9.00;;;16.20;99.90;;;;;;5109033;28;20048;-79
2023/08/22 04:17:43;;;;;;;18.75;9.07;;;16.20;99.90;;;;;;5110403;28;20398;-79
2023/08/22 04:20:30;;;;;;;22.58;7.50;;;16.20;99.90;;;;;;5109557;28;20054;-79
2023/08/22 04:23:16;;;;;;;21.58;10.25;;;16.20;99.90;;;;;;5110493;28;20059;-77
2023/08/22 04:26:02;;;;;;;18.55;9.52;;;16.20;99.90;;;;;;5110271;28;20046;-78
2023/08/22 04:28:48;;;;;;;18.27;8.73;;;16.20;99.90;;;;;;5110361;28;20414;-78
2023/08/22 04:31:34;;;;;;;18.73;8.35;;;16.20;99.90;;;;;;5111328;28;20047;-77
2023/08/22 04:34:20;;;;;;;17.38;8.65;;;16.20;99.90;;;;;;5111026;28;20051;-77
2023/08/22 04:37:07;;;;;;;18.42;9.20;;;16.20;99.90;;;;;;5110111;28;20168;-77
2023/08/22 04:39:53;;;;;;;17.92;10.18;;;16.30;99.90;;;;;;5111007;28;20043;-79
2023/08/22 04:42:39;;;;;;;18.98;8.90;;;16.30;99.90;;;;;;5110085;28;20059;-78
2023/08/22 04:45:26;;;;;;;18.55;10.23;;;16.30;99.90;;;;;;5110822;28;20114;-77
2023/08/22 04:48:12;;;;;;;16.10;9.52;;;16.30;99.90;;;;;;5110822;28;20039;-77
2023/08/22 04:50:58;;;;;;;15.68;8.98;;;16.30;99.90;;;;;;5110896;28;20154;-78
2023/08/22 04:53:46;;;;;;;18.05;8.93;;;16.30;99.90;;;;;;5110602;28;20052;-78
2023/08/22 04:56:32;;;;;;;17.65;9.43;;;16.30;99.90;;;;;;5111055;28;20052;-78
2023/08/22 04:59:18;;;;;;;15.32;9.98;;;16.30;99.90;;;;;;5109696;28;20051;-78
2023/08/22 05:02:05;;;;;;;19.30;9.88;;;16.30;99.90;;;;;;5110838;28;20627;-77
2023/08/22 05:04:51;;;;;;;19.15;9.85;;;16.30;99.90;;;;;;5110334;28;20064;-79
2023/08/22 05:07:37;;;;;;;18.73;9.57;;;16.30;99.90;;;;;;5110210;28;20077;-78
2023/08/22 05:10:24;;;;;;;21.15;10.30;;;16.40;99.90;;;;;;5110696;28;20051;-79
2023/08/22 05:13:10;;;;;;;18.42;9.52;;;16.40;99.90;;;;;;5110769;28;20047;-79
2023/08/22 05:15:56;;;;;;;19.63;8.93;;;16.50;99.90;;;;;;5109896;28;20043;-78
2023/08/22 05:18:43;;;;;;;16.70;8.95;;;16.50;99.90;;;;;;5109940;28;20063;-83
2023/08/22 05:21:29;;;;;;;25.42;10.85;;;16.50;99.90;;;;;;5110797;28;20052;-85
2023/08/22 05:24:15;;;;;;;19.15;9.30;;;16.60;99.90;;;;;;5108840;28;20054;-87
2023/08/22 05:27:01;;;;;;;25.27;10.35;;;16.70;99.90;;;;;;5109596;28;20049;-79
2023/08/22 05:29:47;;;;;;;18.45;9.75;;;16.80;99.90;;;;;;5112817;28;20142;-76
2023/08/22 05:32:34;;;;;;;17.20;9.95;;;16.80;99.90;;;;;;5114577;28;20059;-78
2023/08/22 05:35:20;;;;;;;14.70;9.10;;;16.90;99.90;;;;;;5115979;28;20052;-76
2023/08/22 05:38:06;;;;;;;14.70;8.82;;;17.00;99.90;;;;;;5119671;28;20055;-76
2023/08/22 05:40:52;;;;;;;23.77;10.18;;;17.10;99.90;;;;;;5115709;28;20587;-77
2023/08/22 05:43:38;;;;;;;16.52;9.23;;;17.10;99.90;;;;;;5113998;28;20515;-76
2023/08/22 05:46:25;;;;;;;16.23;9.20;;;17.20;99.90;;;;;;5114622;28;20048;-76
2023/08/22 05:49:11;;;;;;;17.45;8.65;;;17.20;99.90;;;;;;5112754;28;20048;-77
2023/08/22 05:52:05;;;;;;;18.60;9.18;;;17.20;99.90;;;;;;5097480;28;20388;-74
2023/08/22 05:54:51;;;;;;;15.43;9.13;;;17.20;99.90;;;;;;5113109;28;20116;-76
2023/08/22 05:57:37;;;;;;;15.27;9.02;;;17.30;99.90;;;;;;5113705;28;20050;-77
2023/08/22 06:00:23;;;;;;;12.68;6.75;;;17.30;99.90;;;;;;5113411;28;20104;-77
2023/08/22 06:03:09;;;;;;;15.60;8.00;;;17.40;99.90;;;;;;5114022;28;20506;-77
2023/08/22 06:05:55;;;;;;;19.95;8.57;;;17.50;99.90;;;;;;5112949;28;20043;-78
2023/08/22 06:08:41;;;;;;;15.15;7.70;;;17.50;99.90;;;;;;5113317;28;20048;-76
2023/08/22 06:11:28;;;;;;;13.45;7.35;;;17.60;99.90;;;;;;5112653;28;20043;-78
2023/08/22 06:14:14;;;;;;;14.07;8.30;;;17.70;99.90;;;;;;5114014;28;20055;-76
2023/08/22 06:17:00;;;;;;;13.55;7.35;;;17.80;99.90;;;;;;5098217;28;20062;-78
2023/08/22 06:19:48;;;;;;;12.85;7.78;;;17.90;99.90;;;;;;5113037;28;20586;-75
2023/08/22 06:22:34;;;;;;;17.05;8.02;;;18.00;99.90;;;;;;5113226;28;20414;-77
2023/08/22 06:25:21;;;;;;;12.95;7.07;;;18.10;99.90;;;;;;5112446;28;20845;-78
2023/08/22 06:28:08;;;;;;;15.63;7.60;;;18.20;99.90;;;;;;5113271;28;20043;-78
2023/08/22 06:30:54;;;;;;;18.70;8.38;;;18.30;99.90;;;;;;5113722;28;20054;-82
2023/08/22 06:33:40;;;;;;;16.58;7.60;;;18.40;99.90;;;;;;5110048;28;20044;-80
2023/08/22 06:36:26;;;;;;;13.73;6.72;;;18.50;99.90;;;;;;5092567;28;20128;-73
2023/08/22 06:39:13;;;;;;;13.27;6.50;;;18.60;99.90;;;;;;5104366;28;20530;-73
2023/08/22 06:41:59;;;;;;;14.32;7.30;;;18.70;99.90;;;;;;5105801;28;20047;-73
2023/08/22 06:44:45;;;;;;;13.27;6.20;;;18.70;99.90;;;;;;5111914;28;20155;-73
2023/08/22 06:47:31;;;;;;;11.95;6.85;;;18.70;99.90;;;;;;5113751;28;20518;-75
2023/08/22 06:50:17;;;;;;;12.90;6.90;;;18.80;99.90;;;;;;5112487;28;20058;-74
2023/08/22 06:53:03;;;;;;;19.52;8.43;;;18.70;99.90;;;;;;5113654;28;20122;-75
2023/08/22 06:55:49;;;;;;;13.80;6.65;;;18.70;99.90;;;;;;5114024;28;20046;-74
2023/08/22 06:58:36;;;;;;;11.32;6.43;;;18.80;99.90;;;;;;5115409;28;20094;-76
2023/08/22 07:01:22;;;;;;;11.82;6.55;;;18.80;99.90;;;;;;5115373;28;20055;-84
2023/08/22 07:04:08;;;;;;;10.48;5.78;;;18.90;99.90;;;;;;5106965;28;20048;-73
2023/08/22 07:06:54;;;;;;;10.27;5.82;;;19.10;99.90;;;;;;5094632;28;20044;-78
2023/08/22 07:09:40;;;;;;;9.55;5.25;;;19.30;99.90;;;;;;5099173;28;20039;-75
2023/08/22 07:12:27;;;;;;;9.77;5.00;;;19.40;99.90;;;;;;5112270;28;20079;-78
2023/08/22 07:15:13;;;;;;;12.68;5.22;;;19.60;99.90;;;;;;5095506;28;20051;-75
2023/08/22 07:17:59;;;;;;;10.20;5.47;;;19.70;99.90;;;;;;5110672;28;20044;-73
2023/08/22 07:20:51;;;;;;;10.68;4.88;;;19.80;99.90;;;;;;5113751;28;20055;-76
2023/08/22 07:23:37;;;;;;;10.43;5.38;;;20.00;99.90;;;;;;5111275;28;20509;-76
2023/08/22 07:26:23;;;;;;;9.05;4.70;;;20.10;99.90;;;;;;5111614;28;20077;-75
2023/08/22 07:29:09;;;;;;;7.43;4.78;;;20.20;99.90;;;;;;5108893;28;20406;-79
2023/08/22 07:31:59;;;;;;;8.57;4.25;;;20.30;99.90;;;;;;5112572;28;20503;-80
2023/08/22 07:34:46;;;;;;;8.25;4.63;;;20.50;99.90;;;;;;5112066;28;20047;-80
2023/08/22 07:37:33;;;;;;;9.30;4.15;;;20.70;99.90;;;;;;5112103;28;20058;-80
2023/08/22 07:40:20;;;;;;;8.63;3.60;;;20.90;99.90;;;;;;5110345;28;20051;-73
2023/08/22 07:43:09;;;;;;;7.75;3.30;;;21.00;99.90;;;;;;5110300;28;20108;-74
2023/08/22 07:45:56;;;;;;;7.10;2.90;;;21.20;99.90;;;;;;5110384;28;20596;-76
2023/08/22 07:48:42;;;;;;;9.68;3.35;;;21.40;99.90;;;;;;5111412;28;20518;-75
2023/08/22 07:51:28;;;;;;;7.85;3.25;;;21.50;99.90;;;;;;5111463;28;20074;-79
2023/08/22 07:54:14;;;;;;;7.05;3.00;;;21.60;99.90;;;;;;5111738;28;20048;-78
2023/08/22 07:57:01;;;;;;;6.43;2.65;;;21.70;99.90;;;;;;5109882;28;20047;-78
2023/08/22 07:59:47;;;;;;;5.18;2.88;;;21.80;99.90;;;;;;5111289;28;20429;-76
2023/08/22 08:02:33;;;;;;;9.50;2.92;;;21.80;99.90;;;;;;5111315;28;20464;-76
2023/08/22 08:05:19;;;;;;;5.95;2.75;;;21.90;99.90;;;;;;5110305;28;20205;-78
2023/08/22 08:08:06;;;;;;;8.18;2.60;;;21.90;99.90;;;;;;5110575;28;20048;-75
2023/08/22 08:10:52;;;;;;;6.05;2.78;;;22.10;99.90;;;;;;5111315;28;20051;-77
2023/08/22 08:13:38;;;;;;;5.18;2.70;;;22.20;99.90;;;;;;5109718;28;20142;-75
2023/08/22 08:16:24;;;;;;;7.30;2.50;;;22.30;99.90;;;;;;5109940;28;20055;-78
2023/08/22 08:19:13;;;;;;;8.82;2.63;;;22.40;99.90;;;;;;5109936;28;20104;-79
2023/08/22 08:21:59;;;;;;;8.40;3.13;;;22.40;99.90;;;;;;5093633;28;20040;-79
2023/08/22 08:24:45;;;;;;;9.60;3.05;;;22.60;99.90;;;;;;5111301;28;20043;-77
2023/08/22 08:27:32;;;;;;;8.07;3.58;;;22.80;99.90;;;;;;5110490;28;20047;-78
2023/08/22 08:30:18;;;;;;;11.25;4.30;;;22.80;99.90;;;;;;5109688;28;20146;-77
2023/08/22 08:33:06;;;;;;;11.45;4.43;;;22.90;99.90;;;;;;5109708;28;20044;-76
2023/08/22 08:35:53;;;;;;;11.23;4.45;;;22.90;99.90;;;;;;5105404;28;20063;-74
2023/08/22 08:38:39;;;;;;;12.77;4.70;;;22.80;99.90;;;;;;5111029;28;20051;-79
2023/08/22 08:41:29;;;;;;;8.52;4.65;;;22.70;99.90;;;;;;5111002;28;20051;-77
2023/08/22 08:44:15;;;;;;;10.70;4.32;;;22.90;99.90;;;;;;5108902;28;20067;-81
2023/08/22 08:47:02;;;;;;;8.07;4.15;;;23.20;99.90;;;;;;5110176;28;20230;-77
2023/08/22 08:49:49;;;;;;;10.50;5.13;;;23.50;99.90;;;;;;5109258;28;20377;-74
2023/08/22 08:52:35;;;;;;;10.90;4.55;;;23.70;99.90;;;;;;5110365;28;20055;-76
2023/08/22 08:55:21;;;;;;;9.55;5.25;;;23.90;99.90;;;;;;5109103;28;20051;-77
2023/08/22 08:58:08;;;;;;;12.35;4.68;;;23.90;99.90;;;;;;5110490;28;20098;-76
2023/08/22 09:00:56;;;;;;;9.10;4.68;;;23.90;99.90;;;;;;5110069;28;20051;-75
2023/08/22 09:03:44;;;;;;;9.38;4.53;;;23.90;99.90;;;;;;5110160;28;20052;-77
2023/08/22 09:06:30;;;;;;;9.75;5.22;;;23.90;99.90;;;;;;5095570;28;20048;-79
2023/08/22 09:09:17;;;;;;;9.68;4.35;;;23.70;99.90;;;;;;5110422;28;20058;-77
2023/08/22 09:12:06;;;;;;;9.70;4.03;;;24.00;99.90;;;;;;5110959;28;20047;-79
2023/08/22 09:14:52;;;;;;;9.65;5.20;;;23.90;99.90;;;;;;5113096;28;20056;-78
2023/08/22 09:17:41;;;;;;;8.82;4.57;;;23.90;99.90;;;;;;5110660;28;20051;-79
2023/08/22 09:20:28;;;;;;;12.52;5.45;;;24.00;99.90;;;;;;5110518;28;20051;-77
2023/08/22 09:23:28;;;;;;;11.95;4.70;;;24.30;99.90;;;;;;5110702;28;20430;-76
2023/08/22 09:26:21;;;;;;;10.52;5.05;;;24.50;99.90;;;;;;5108334;28;20087;-82
2023/08/22 09:29:07;;;;;;;10.80;5.47;;;24.70;99.90;;;;;;5103469;28;20048;-78
2023/08/22 09:32:02;;;;;;;9.05;5.13;;;24.80;99.90;;;;;;5100741;28;20406;-79
2023/08/22 09:34:53;;;;;;;;;;;24.90;99.90;;;;;;5110050;28;20052;-74
2023/08/22 09:37:40;;;;;;;10.95;5.20;;;24.90;99.90;;;;;;5110293;28;19930;-77
2023/08/22 09:40:26;;;;;;;9.57;4.88;;;25.20;99.90;;;;;;5099715;28;20134;-76
2023/08/22 09:43:12;;;;;;;11.30;4.32;;;25.40;99.90;;;;;;5093243;28;20059;-79
2023/08/22 09:46:01;;;;;;;9.07;4.57;;;25.40;99.90;;;;;;5111030;28;20108;-76
2023/08/22 09:48:49;;;;;;;7.70;5.30;;;25.40;99.90;;;;;;5081482;28;20048;-78
2023/08/22 09:51:35;;;;;;;11.95;6.32;;;25.50;99.90;;;;;;5109848;28;20043;-77
2023/08/22 09:54:22;;;;;;;8.20;5.63;;;25.50;99.90;;;;;;5101566;28;20076;-75
2023/08/22 09:57:10;;;;;;;10.15;5.65;;;25.50;99.90;;;;;;5087746;28;20063;-73
2023/08/22 10:00:00;;;;;;;10.18;5.18;;;25.70;99.90;;;;;;5089514;28;20148;-74
2023/08/22 10:02:48;;;;;;;15.40;5.47;;;25.90;99.90;;;;;;5088974;28;20059;-72
2023/08/22 10:05:35;;;;;;;10.63;4.65;;;25.80;99.90;;;;;;5088378;28;20056;-76
2023/08/22 10:08:21;;;;;;;12.77;5.70;;;26.00;99.90;;;;;;5087707;28;20461;-76
2023/08/22 10:11:11;;;;;;;11.27;5.68;;;26.20;99.90;;;;;;5087419;28;20056;-75
2023/08/22 10:13:57;;;;;;;12.20;6.18;;;26.40;99.90;;;;;;5091708;28;20089;-76
2023/08/22 10:16:45;;;;;;;9.40;5.45;;;26.40;99.90;;;;;;5093842;28;20109;-79
2023/08/22 10:19:31;;;;;;;14.40;5.15;;;26.70;99.90;;;;;;5093767;28;20507;-75
2023/08/22 10:22:18;;;;;;;8.82;4.85;;;26.90;99.90;;;;;;5093149;28;20572;-80
2023/08/22 10:25:06;;;;;;;8.15;5.07;;;26.90;99.90;;;;;;5092484;28;20055;-77
2023/08/22 10:27:53;;;;;;;10.57;5.85;;;26.90;99.90;;;;;;5094415;28;20059;-75
2023/08/22 10:31:04;;;;;;;12.82;6.93;;;26.60;99.90;;;;;;5092277;28;20135;-72
2023/08/22 10:34:00;;;;;;;9.65;5.68;;;26.60;99.90;;;;;;5094108;28;20142;-75
2023/08/22 10:37:05;;;;;;;10.07;6.13;;;26.70;99.90;;;;;;5093802;28;20131;-73
2023/08/22 10:39:52;;;;;;;10.95;4.93;;;26.50;99.90;;;;;;5092950;28;20056;-77
2023/08/22 10:42:38;;;;;;;11.27;6.13;;;26.50;99.90;;;;;;5091681;28;20069;-75
2023/08/22 10:45:25;;;;;;;8.02;4.85;;;26.40;99.90;;;;;;5092502;28;20373;-76
2023/08/22 10:48:12;;;;;;;7.68;3.97;;;26.60;99.90;;;;;;5093024;28;20036;-74
2023/08/22 10:51:06;;;;;;;8.63;4.10;;;26.70;99.90;;;;;;5093925;28;20091;-77
2023/08/22 10:53:55;;;;;;;7.70;3.60;;;26.80;99.70;;;;;;5093632;28;20048;-78
2023/08/22 10:56:43;;;;;;;9.45;3.80;;;27.00;99.90;;;;;;5093785;28;20052;-81
2023/08/22 10:59:29;;;;;;;6.10;3.28;;;27.50;99.50;;;;;;5096303;28;20655;-78
2023/08/22 11:02:15;;;;;;;7.72;2.95;;;27.50;98.90;;;;;;5098267;28;20051;-76
2023/08/22 11:05:04;;;;;;;6.82;2.85;;;27.60;97.70;;;;;;5094573;28;20138;-77
2023/08/22 11:07:51;;;;;;;8.15;3.03;;;27.60;96.90;;;;;;5095374;28;20138;-78
2023/08/22 11:10:39;;;;;;;8.13;3.15;;;27.80;96.90;;;;;;5077462;28;20054;-79
2023/08/22 11:13:36;;;;;;;7.90;2.63;;;27.90;97.50;;;;;;5092243;28;20442;-74
2023/08/22 11:16:22;;;;;;;7.20;2.10;;;28.30;95.40;;;;;;5093151;28;20452;-76
2023/08/22 11:19:08;;;;;;;7.47;2.58;;;28.30;95.20;;;;;;5103491;28;20410;-74
2023/08/22 11:21:54;;;;;;;7.85;3.05;;;28.10;95.80;;;;;;5103000;28;20154;-75
2023/08/22 11:24:45;;;;;;;8.95;3.00;;;27.80;96.00;;;;;;5103679;28;20112;-74
2023/08/22 11:27:32;;;;;;;4.38;1.50;;;27.60;96.20;;;;;;5104469;28;20467;-75
2023/08/22 11:30:19;;;;;;;8.20;2.45;;;27.30;94.90;;;;;;5106115;28;20043;-74
2023/08/22 11:33:05;;;;;;;6.40;2.35;;;27.00;95.40;;;;;;5097211;28;20048;-76
2023/08/22 11:35:52;;;;;;;7.10;2.40;;;26.90;96.20;;;;;;5089031;28;20052;-76
2023/08/22 11:38:41;;;;;;;5.85;2.22;;;27.10;96.10;;;;;;5091588;28;20055;-74
2023/08/22 11:41:27;;;;;;;4.75;2.08;;;27.50;95.90;;;;;;5092481;28;20117;-78
2023/08/22 11:44:13;;;;;;;8.13;2.80;;;28.20;95.60;;;;;;5092216;28;20070;-81
2023/08/22 11:47:00;;;;;;;9.05;3.22;;;28.70;94.60;;;;;;5090514;28;20051;-78
2023/08/22 11:49:50;;;;;;;10.88;3.20;;;28.30;93.70;;;;;;5091358;28;20054;-82
2023/08/22 11:52:39;;;;;;;7.28;2.65;;;28.80;94.40;;;;;;5091417;28;20056;-79
2023/08/22 11:55:27;;;;;;;9.63;2.15;;;28.60;94.70;;;;;;5090856;28;20146;-76
2023/08/22 11:58:17;;;;;;;10.57;2.90;;;28.70;95.70;;;;;;5090627;28;20105;-79
2023/08/22 12:01:04;;;;;;;5.07;1.80;;;28.20;96.50;;;;;;5092130;28;20047;-76
2023/08/22 12:03:56;;;;;;;5.85;1.60;;;28.00;97.20;;;;;;5090854;28;20129;-82
2023/08/22 12:06:42;;;;;;;9.00;1.73;;;28.50;97.90;;;;;;5090049;28;20404;-81
2023/08/22 12:09:28;;;;;;;9.32;2.13;;;28.80;96.80;;;;;;5091566;28;20048;-76
2023/08/22 12:12:15;;;;;;;7.63;2.25;;;29.20;96.30;;;;;;5091587;28;20043;-78
2023/08/22 12:15:01;;;;;;;7.95;2.20;;;28.90;96.30;;;;;;5089280;28;20495;-76
2023/08/22 12:17:47;;;;;;;11.55;2.67;;;29.20;96.50;;;;;;5091613;28;20106;-79
2023/08/22 12:20:34;;;;;;;11.38;3.47;;;29.60;95.90;;;;;;5089749;28;20525;-78
2023/08/22 12:23:20;;;;;;;7.60;2.20;;;29.70;95.50;;;;;;5092450;28;20104;-77
2023/08/22 12:26:06;;;;;;;7.90;2.00;;;29.50;94.80;;;;;;5104925;28;20515;-80
2023/08/22 12:28:53;;;;;;;9.85;3.10;;;28.90;94.90;;;;;;5102662;28;20114;-75
2023/08/22 12:31:39;;;;;;;11.43;2.97;;;28.30;95.50;;;;;;5101575;28;20522;-80
2023/08/22 12:34:25;;;;;;;9.30;2.45;;;27.90;96.00;;;;;;5105370;28;20132;-77
2023/08/22 12:37:11;;;;;;;8.80;2.60;;;28.10;96.00;;;;;;5102661;28;20040;-78
2023/08/22 12:39:57;;;;;;;13.30;3.88;;;27.90;95.70;;;;;;5076884;28;20514;-75
2023/08/22 12:42:45;;;;;;;12.07;2.97;;;27.60;96.60;;;;;;5091669;28;20578;-78
2023/08/22 12:45:31;;;;;;;8.15;2.65;;;27.80;96.90;;;;;;5090012;28;20048;-78
2023/08/22 12:48:20;;;;;;;8.52;2.58;;;28.30;96.70;;;;;;5092470;28;20054;-77
2023/08/22 12:51:06;;;;;;;7.43;2.60;;;29.00;96.00;;;;;;5089191;28;20465;-77
2023/08/22 12:53:53;;;;;;;10.50;2.50;;;29.60;95.30;;;;;;5090711;28;20075;-80
2023/08/22 12:56:39;;;;;;;9.70;2.70;;;29.80;95.60;;;;;;5092097;28;20134;-78
2023/08/22 12:59:25;;;;;;;9.38;2.90;;;30.50;94.70;;;;;;5077005;28;20054;-79
2023/08/22 13:02:11;;;;;;;16.85;3.03;;;31.00;93.40;;;;;;5091760;28;20054;-80
2023/08/22 13:04:57;;;;;;;11.75;3.13;;;31.30;93.20;;;;;;5089620;28;20579;-81
2023/08/22 13:07:44;;;;;;;10.05;3.17;;;30.10;93.60;;;;;;5092609;28;20059;-81
2023/08/22 13:10:30;;;;;;;15.23;3.40;;;29.70;94.60;;;;;;5091884;28;20041;-80
2023/08/22 13:13:16;;;;;;;9.85;2.85;;;29.20;95.10;;;;;;5092506;28;20147;-82
2023/08/22 13:16:02;;;;;;;9.55;2.50;;;29.60;95.40;;;;;;5100010;28;20043;-77
2023/08/22 13:18:48;;;;;;;9.43;2.25;;;30.60;94.80;;;;;;5104669;28;20054;-78
2023/08/22 13:21:34;;;;;;;6.25;1.80;;;31.60;93.80;;;;;;5099244;28;20056;-75
2023/08/22 13:24:21;;;;;;;10.23;1.83;;;32.10;92.80;;;;;;5100725;28;20048;-76
2023/08/22 13:27:07;;;;;;;5.00;1.52;;;31.70;92.50;;;;;;5102296;28;20052;-80
2023/08/22 13:29:54;;;;;;;7.90;1.73;;;32.10;92.00;;;;;;5102177;28;20048;-81
2023/08/22 13:32:40;;;;;;;8.95;1.90;;;32.80;91.60;;;;;;5103954;28;20044;-73
2023/08/22 13:35:26;;;;;;;9.57;2.30;;;32.90;91.10;;;;;;5099621;28;20052;-71
2023/08/22 13:38:12;;;;;;;6.10;1.88;;;33.30;90.60;;;;;;5100728;28;20398;-77
2023/08/22 13:40:58;;;;;;;7.95;2.63;;;33.80;89.50;;;;;;5100393;28;20154;-80
2023/08/22 13:43:44;;;;;;;10.48;2.22;;;33.60;89.40;;;;;;5101358;28;20052;-78
2023/08/22 13:46:31;;;;;;;11.18;2.55;;;34.00;88.70;;;;;;5101243;28;20059;-81
2023/08/22 13:49:17;;;;;;;7.35;2.40;;;33.20;88.50;;;;;;5096586;28;20468;-76
2023/08/22 13:52:03;;;;;;;5.32;2.22;;;33.20;88.80;;;;;;5114752;28;20052;-76
2023/08/22 13:54:49;;;;;;;8.50;2.58;;;33.90;88.50;;;;;;5116352;28;20047;-80
2023/08/22 13:57:35;;;;;;;12.05;2.45;;;33.70;87.80;;;;;;5115191;28;20048;-81
2023/08/22 14:00:23;;;;;;;6.47;1.70;;;33.50;87.50;;;;;;5117362;28;20151;-78
2023/08/22 14:03:09;;;;;;;6.53;1.90;;;33.70;87.70;;;;;;5099325;28;20062;-75
2023/08/22 14:05:55;;;;;;;5.57;2.10;;;32.80;89.00;;;;;;5112944;28;20498;-79
2023/08/22 14:08:41;;;;;;;8.30;2.47;;;33.00;88.60;;;;;;5113034;28;20059;-75
2023/08/22 14:11:27;;;;;;;10.55;2.58;;;32.60;88.60;;;;;;5113094;28;20043;-79
2023/08/22 14:14:14;;;;;;;8.48;2.90;;;31.60;90.20;;;;;;5113918;28;20091;-77
2023/08/22 14:17:00;;;;;;;10.65;2.47;;;31.70;90.20;;;;;;5113290;28;20051;-70
2023/08/22 14:19:48;;;;;;;7.10;2.45;;;32.00;90.50;;;;;;5114422;28;20091;-71
2023/08/22 14:22:35;;;;;;;7.00;2.25;;;32.50;88.60;;;;;;5113942;28;20140;-70